sensor_id;sensor_type;location;lat;lon;timestamp;temperature;humidity
23723;DHT22;12042;52.136;5.584;2023-02-28T06:41:03;2.70;99.90
23723;DHT22;12042;52.136;5.584;2023-02-28T06:43:31;2.80;99.90
23723;DHT22;12042;52.136;5.584;2023-02-28T06:45:59;3.00;99.90
23723;DHT22;12042;52.136;5.584;2023-02-28T06:48:26;3.20;99.90
23723;DHT22;12042;52.136;5.584;2023-02-28T06:50:52;3.30;99.90
23723;DHT22;12042;52.136;5.584;2023-02-28T06:53:18;3.40;99.90
23723;DHT22;12042;52.136;5.584;2023-02-28T06:55:43;3.50;99.90
23723;DHT22;12042;52.136;5.584;2023-02-28T06:58:09;3.50;99.90
23723;DHT22;12042;52.136;5.584;2023-02-28T07:00:45;3.50;99.90
23723;DHT22;12042;52.136;5.584;2023-02-28T07:03:12;3.50;99.90
23723;DHT22;12042;52.136;5.584;2023-02-28T07:05:38;3.50;99.90
23723;DHT22;12042;52.136;5.584;2023-02-28T07:08:05;3.50;99.90
23723;DHT22;12042;52.136;5.584;2023-02-28T07:10:34;3.50;99.90
23723;DHT22;12042;52.136;5.584;2023-02-28T07:13:00;3.60;99.90
23723;DHT22;12042;52.136;5.584;2023-02-28T07:15:26;3.60;99.90
23723;DHT22;12042;52.136;5.584;2023-02-28T07:17:51;3.70;99.90
23723;DHT22;12042;52.136;5.584;2023-02-28T07:20:17;3.80;99.90
23723;DHT22;12042;52.136;5.584;2023-02-28T07:22:42;3.80;99.90
23723;DHT22;12042;52.136;5.584;2023-02-28T07:25:08;3.70;99.90
23723;DHT22;12042;52.136;5.584;2023-02-28T07:27:34;3.70;99.90
23723;DHT22;12042;52.136;5.584;2023-02-28T07:30:00;3.60;99.90
23723;DHT22;12042;52.136;5.584;2023-02-28T07:32:27;3.40;99.90
23723;DHT22;12042;52.136;5.584;2023-02-28T07:34:53;3.10;99.90
23723;DHT22;12042;52.136;5.584;2023-02-28T07:37:19;3.00;99.90
23723;DHT22;12042;52.136;5.584;2023-02-28T07:39:45;2.90;99.90
23723;DHT22;12042;52.136;5.584;2023-02-28T07:42:11;2.70;99.90
23723;DHT22;12042;52.136;5.584;2023-02-28T07:44:38;2.50;99.90
23723;DHT22;12042;52.136;5.584;2023-02-28T07:47:07;2.40;99.90
23723;DHT22;12042;52.136;5.584;2023-02-28T07:49:34;2.40;99.90
23723;DHT22;12042;52.136;5.584;2023-02-28T07:51:59;2.40;99.90
23723;DHT22;12042;52.136;5.584;2023-02-28T07:54:25;2.30;99.90
23723;DHT22;12042;52.136;5.584;2023-02-28T07:56:50;2.40;99.90
23723;DHT22;12042;52.136;5.584;2023-02-28T07:59:16;2.40;99.90
23723;DHT22;12042;52.136;5.584;2023-02-28T08:01:42;2.50;99.90
23723;DHT22;12042;52.136;5.584;2023-02-28T08:04:09;2.50;99.90
23723;DHT22;12042;52.136;5.584;2023-02-28T08:06:35;2.60;99.90
23723;DHT22;12042;52.136;5.584;2023-02-28T08:09:01;2.70;99.90
23723;DHT22;12042;52.136;5.584;2023-02-28T08:11:26;2.70;99.90
23723;DHT22;12042;52.136;5.584;2023-02-28T08:13:52;2.80;99.90
23723;DHT22;12042;52.136;5.584;2023-02-28T08:16:17;2.80;99.90
23723;DHT22;12042;52.136;5.584;2023-02-28T08:18:48;2.90;99.90
23723;DHT22;12042;52.136;5.584;2023-02-28T08:21:14;2.80;99.90
23723;DHT22;12042;52.136;5.584;2023-02-28T08:23:40;2.90;99.90
23723;DHT22;12042;52.136;5.584;2023-02-28T08:26:06;2.90;99.90
23723;DHT22;12042;52.136;5.584;2023-02-28T08:28:32;2.90;99.90
23723;DHT22;12042;52.136;5.584;2023-02-28T08:30:58;2.90;99.90
23723;DHT22;12042;52.136;5.584;2023-02-28T08:33:25;3.00;99.90
23723;DHT22;12042;52.136;5.584;2023-02-28T08:35:55;3.00;99.90
23723;DHT22;12042;52.136;5.584;2023-02-28T08:38:21;3.10;99.90
23723;DHT22;12042;52.136;5.584;2023-02-28T08:40:47;3.10;99.90
23723;DHT22;12042;52.136;5.584;2023-02-28T08:43:12;3.10;99.90
23723;DHT22;12042;52.136;5.584;2023-02-28T08:45:38;3.20;99.90
23723;DHT22;12042;52.136;5.584;2023-02-28T08:48:04;3.40;99.90
23723;DHT22;12042;52.136;5.584;2023-02-28T08:50:29;3.50;99.90
23723;DHT22;12042;52.136;5.584;2023-02-28T08:52:55;3.60;99.90
23723;DHT22;12042;52.136;5.584;2023-02-28T08:55:20;3.70;99.90
23723;DHT22;12042;52.136;5.584;2023-02-28T08:57:46;3.90;99.90
23723;DHT22;12042;52.136;5.584;2023-02-28T09:00:12;3.90;99.90
23723;DHT22;12042;52.136;5.584;2023-02-28T09:02:39;4.00;99.90
23723;DHT22;12042;52.136;5.584;2023-02-28T09:05:05;4.10;99.90
23723;DHT22;12042;52.136;5.584;2023-02-28T09:07:33;4.00;99.90
23723;DHT22;12042;52.136;5.584;2023-02-28T09:09:59;3.90;99.90
23723;DHT22;12042;52.136;5.584;2023-02-28T09:12:28;3.90;99.90
23723;DHT22;12042;52.136;5.584;2023-02-28T09:14:57;4.00;99.90
23723;DHT22;12042;52.136;5.584;2023-02-28T09:17:22;4.10;99.90
23723;DHT22;12042;52.136;5.584;2023-02-28T09:19:48;4.00;99.90
23723;DHT22;12042;52.136;5.584;2023-02-28T09:22:14;4.00;99.90
23723;DHT22;12042;52.136;5.584;2023-02-28T09:24:40;4.10;99.90
23723;DHT22;12042;52.136;5.584;2023-02-28T09:27:07;4.30;99.90
23723;DHT22;12042;52.136;5.584;2023-02-28T09:29:34;4.30;99.90
23723;DHT22;12042;52.136;5.584;2023-02-28T09:32:00;4.40;99.90
23723;DHT22;12042;52.136;5.584;2023-02-28T09:34:26;4.50;99.90
23723;DHT22;12042;52.136;5.584;2023-02-28T09:36:52;4.70;99.90
23723;DHT22;12042;52.136;5.584;2023-02-28T09:39:22;4.70;99.90
23723;DHT22;12042;52.136;5.584;2023-02-28T09:41:51;4.60;99.90
23723;DHT22;12042;52.136;5.584;2023-02-28T09:44:31;4.70;99.90
23723;DHT22;12042;52.136;5.584;2023-02-28T09:47:34;4.90;99.90
23723;DHT22;12042;52.136;5.584;2023-02-28T09:50:41;5.10;99.90
23723;DHT22;12042;52.136;5.584;2023-02-28T09:53:27;5.10;99.90
23723;DHT22;12042;52.136;5.584;2023-02-28T09:55:58;5.10;99.90
23723;DHT22;12042;52.136;5.584;2023-02-28T10:03:57;5.20;99.90
23723;DHT22;12042;52.136;5.584;2023-02-28T10:06:55;5.20;99.90
23723;DHT22;12042;52.136;5.584;2023-02-28T10:09:29;5.30;99.90
23723;DHT22;12042;52.136;5.584;2023-02-28T10:12:00;5.40;99.90
23723;DHT22;12042;52.136;5.584;2023-02-28T10:14:30;5.50;99.90
23723;DHT22;12042;52.136;5.584;2023-02-28T10:17:08;5.50;99.90
23723;DHT22;12042;52.136;5.584;2023-02-28T10:19:39;5.50;99.90
23723;DHT22;12042;52.136;5.584;2023-02-28T10:22:29;5.60;99.90
23723;DHT22;12042;52.136;5.584;2023-02-28T10:24:57;5.50;99.90
23723;DHT22;12042;52.136;5.584;2023-02-28T10:27:32;5.50;99.90
23723;DHT22;12042;52.136;5.584;2023-02-28T10:30:00;5.70;99.90
23723;DHT22;12042;52.136;5.584;2023-02-28T10:32:27;5.70;99.90
23723;DHT22;12042;52.136;5.584;2023-02-28T10:35:09;5.80;99.90
23723;DHT22;12042;52.136;5.584;2023-02-28T10:37:40;5.70;99.90
23723;DHT22;12042;52.136;5.584;2023-02-28T10:40:33;5.90;99.90
23723;DHT22;12042;52.136;5.584;2023-02-28T10:43:03;5.90;99.90
23723;DHT22;12042;52.136;5.584;2023-02-28T10:45:33;5.80;99.90
23723;DHT22;12042;52.136;5.584;2023-02-28T10:48:26;5.90;99.90
23723;DHT22;12042;52.136;5.584;2023-02-28T10:50:53;6.00;99.90
23723;DHT22;12042;52.136;5.584;2023-02-28T10:56:03;6.10;99.90
23723;DHT22;12042;52.136;5.584;2023-02-28T11:01:21;6.30;99.90
23723;DHT22;12042;52.136;5.584;2023-02-28T11:03:48;6.60;99.90
23723;DHT22;12042;52.136;5.584;2023-02-28T11:06:34;6.70;99.90
23723;DHT22;12042;52.136;5.584;2023-02-28T11:09:04;6.70;99.90
23723;DHT22;12042;52.136;5.584;2023-02-28T11:11:42;6.80;99.90
23723;DHT22;12042;52.136;5.584;2023-02-28T11:14:25;6.80;99.90
23723;DHT22;12042;52.136;5.584;2023-02-28T11:16:52;6.60;99.90
23723;DHT22;12042;52.136;5.584;2023-02-28T11:19:32;6.50;99.90
23723;DHT22;12042;52.136;5.584;2023-02-28T11:22:01;6.50;99.90
23723;DHT22;12042;52.136;5.584;2023-02-28T11:24:37;6.50;99.90
23723;DHT22;12042;52.136;5.584;2023-02-28T11:27:05;6.50;99.90
23723;DHT22;12042;52.136;5.584;2023-02-28T11:29:32;6.60;99.90
23723;DHT22;12042;52.136;5.584;2023-02-28T11:32:07;6.50;99.90
23723;DHT22;12042;52.136;5.584;2023-02-28T11:34:37;6.40;99.90
23723;DHT22;12042;52.136;5.584;2023-02-28T11:37:05;6.50;99.90
23723;DHT22;12042;52.136;5.584;2023-02-28T11:39:33;6.40;99.90
23723;DHT22;12042;52.136;5.584;2023-02-28T11:42:22;6.50;99.90
23723;DHT22;12042;52.136;5.584;2023-02-28T11:53:17;6.80;99.90
23723;DHT22;12042;52.136;5.584;2023-02-28T11:55:45;6.70;99.90
23723;DHT22;12042;52.136;5.584;2023-02-28T11:58:42;6.70;99.90
23723;DHT22;12042;52.136;5.584;2023-02-28T12:04:11;6.70;99.90
23723;DHT22;12042;52.136;5.584;2023-02-28T12:06:49;6.90;99.90
23723;DHT22;12042;52.136;5.584;2023-02-28T12:09:31;6.80;99.90
23723;DHT22;12042;52.136;5.584;2023-02-28T12:12:17;6.80;99.90
23723;DHT22;12042;52.136;5.584;2023-02-28T12:14:59;6.80;99.90
23723;DHT22;12042;52.136;5.584;2023-02-28T12:17:43;7.00;99.90
23723;DHT22;12042;52.136;5.584;2023-02-28T12:20:21;6.80;99.90
23723;DHT22;12042;52.136;5.584;2023-02-28T12:28:23;7.00;99.90
23723;DHT22;12042;52.136;5.584;2023-02-28T12:31:00;7.20;99.90
23723;DHT22;12042;52.136;5.584;2023-02-28T12:33:33;7.10;99.90
23723;DHT22;12042;52.136;5.584;2023-02-28T12:36:05;7.20;99.90
23723;DHT22;12042;52.136;5.584;2023-02-28T12:38:40;7.20;99.90
23723;DHT22;12042;52.136;5.584;2023-02-28T12:41:13;7.20;99.90
23723;DHT22;12042;52.136;5.584;2023-02-28T12:43:45;7.10;99.90
23723;DHT22;12042;52.136;5.584;2023-02-28T12:46:24;7.00;99.90
23723;DHT22;12042;52.136;5.584;2023-02-28T12:48:55;7.00;99.90
23723;DHT22;12042;52.136;5.584;2023-02-28T12:51:22;6.90;99.90
23723;DHT22;12042;52.136;5.584;2023-02-28T12:54:06;6.90;99.90
23723;DHT22;12042;52.136;5.584;2023-02-28T13:05:01;7.00;99.90
23723;DHT22;12042;52.136;5.584;2023-02-28T13:10:16;7.10;99.90
23723;DHT22;12042;52.136;5.584;2023-02-28T13:12:51;7.20;99.90
23723;DHT22;12042;52.136;5.584;2023-02-28T13:17:50;7.10;99.90
23723;DHT22;12042;52.136;5.584;2023-02-28T13:20:23;7.00;99.90
23723;DHT22;12042;52.136;5.584;2023-02-28T13:22:51;7.10;99.90
23723;DHT22;12042;52.136;5.584;2023-02-28T13:28:00;7.50;99.90
23723;DHT22;12042;52.136;5.584;2023-02-28T13:33:43;7.30;99.90
23723;DHT22;12042;52.136;5.584;2023-02-28T13:38:42;7.40;99.90
23723;DHT22;12042;52.136;5.584;2023-02-28T13:44:09;7.20;99.90
23723;DHT22;12042;52.136;5.584;2023-02-28T13:52:02;7.20;99.90
23723;DHT22;12042;52.136;5.584;2023-02-28T13:58:04;7.40;99.90
23723;DHT22;12042;52.136;5.584;2023-02-28T14:01:02;7.40;99.90
23723;DHT22;12042;52.136;5.584;2023-02-28T14:06:33;7.40;99.90
23723;DHT22;12042;52.136;5.584;2023-02-28T14:11:39;7.50;99.90
23723;DHT22;12042;52.136;5.584;2023-02-28T14:14:06;7.60;99.90
23723;DHT22;12042;52.136;5.584;2023-02-28T14:16:45;7.40;99.90
23723;DHT22;12042;52.136;5.584;2023-02-28T14:19:22;7.30;99.90
23723;DHT22;12042;52.136;5.584;2023-02-28T14:22:09;7.30;99.90
23723;DHT22;12042;52.136;5.584;2023-02-28T14:27:43;7.20;99.90
23723;DHT22;12042;52.136;5.584;2023-02-28T14:30:14;7.20;99.90
23723;DHT22;12042;52.136;5.584;2023-02-28T14:32:50;7.20;99.90
23723;DHT22;12042;52.136;5.584;2023-02-28T14:37:54;7.30;99.90
23723;DHT22;12042;52.136;5.584;2023-02-28T14:43:00;7.40;99.90
23723;DHT22;12042;52.136;5.584;2023-02-28T14:45:31;7.40;99.90
23723;DHT22;12042;52.136;5.584;2023-02-28T14:47:58;7.40;99.90
23723;DHT22;12042;52.136;5.584;2023-02-28T14:50:34;7.50;99.90
23723;DHT22;12042;52.136;5.584;2023-02-28T14:53:00;7.60;99.90
23723;DHT22;12042;52.136;5.584;2023-02-28T14:55:29;7.70;99.90
23723;DHT22;12042;52.136;5.584;2023-02-28T14:57:59;7.70;99.90
23723;DHT22;12042;52.136;5.584;2023-02-28T15:00:27;7.50;99.90
23723;DHT22;12042;52.136;5.584;2023-02-28T15:02:54;7.50;99.90
23723;DHT22;12042;52.136;5.584;2023-02-28T15:05:28;7.40;99.90
23723;DHT22;12042;52.136;5.584;2023-02-28T15:08:14;7.30;99.90
23723;DHT22;12042;52.136;5.584;2023-02-28T15:10:44;7.20;99.90
23723;DHT22;12042;52.136;5.584;2023-02-28T15:13:14;7.20;99.90
23723;DHT22;12042;52.136;5.584;2023-02-28T15:15:51;7.10;99.90
23723;DHT22;12042;52.136;5.584;2023-02-28T15:21:27;7.30;99.90
23723;DHT22;12042;52.136;5.584;2023-02-28T15:26:53;7.30;99.90
23723;DHT22;12042;52.136;5.584;2023-02-28T15:29:22;7.20;99.90
23723;DHT22;12042;52.136;5.584;2023-02-28T15:32:05;7.30;99.90
23723;DHT22;12042;52.136;5.584;2023-02-28T15:34:40;7.40;99.90
23723;DHT22;12042;52.136;5.584;2023-02-28T15:37:45;7.40;99.90
23723;DHT22;12042;52.136;5.584;2023-02-28T15:42:38;7.50;99.90
23723;DHT22;12042;52.136;5.584;2023-02-28T15:45:04;7.60;99.90
23723;DHT22;12042;52.136;5.584;2023-02-28T15:47:30;7.50;99.90
23723;DHT22;12042;52.136;5.584;2023-02-28T15:50:02;7.30;99.90
23723;DHT22;12042;52.136;5.584;2023-02-28T15:52:34;7.30;99.90
23723;DHT22;12042;52.136;5.584;2023-02-28T15:55:22;7.30;99.90
23723;DHT22;12042;52.136;5.584;2023-02-28T15:57:54;7.30;99.90
23723;DHT22;12042;52.136;5.584;2023-02-28T16:00:23;7.30;99.90
23723;DHT22;12042;52.136;5.584;2023-02-28T16:02:49;7.30;99.90
23723;DHT22;12042;52.136;5.584;2023-02-28T16:05:20;7.30;99.90
23723;DHT22;12042;52.136;5.584;2023-02-28T16:07:54;7.30;99.90
23723;DHT22;12042;52.136;5.584;2023-02-28T16:10:21;7.50;99.90
23723;DHT22;12042;52.136;5.584;2023-02-28T16:12:48;7.60;99.90
23723;DHT22;12042;52.136;5.584;2023-02-28T16:15:20;7.50;99.90
23723;DHT22;12042;52.136;5.584;2023-02-28T16:17:47;7.50;99.90
23723;DHT22;12042;52.136;5.584;2023-02-28T16:20:33;7.60;99.90
23723;DHT22;12042;52.136;5.584;2023-02-28T16:22:58;7.60;99.90
23723;DHT22;12042;52.136;5.584;2023-02-28T16:25:35;7.50;99.90
23723;DHT22;12042;52.136;5.584;2023-02-28T16:28:02;7.30;99.90
23723;DHT22;12042;52.136;5.584;2023-02-28T16:30:29;7.10;99.90
23723;DHT22;12042;52.136;5.584;2023-02-28T16:32:57;7.00;99.90
23723;DHT22;12042;52.136;5.584;2023-02-28T16:35:23;7.00;99.90
23723;DHT22;12042;52.136;5.584;2023-02-28T16:37:51;6.80;99.90
23723;DHT22;12042;52.136;5.584;2023-02-28T16:40:22;6.70;99.90
23723;DHT22;12042;52.136;5.584;2023-02-28T16:42:54;6.60;99.90
23723;DHT22;12042;52.136;5.584;2023-02-28T16:45:24;6.60;99.90
23723;DHT22;12042;52.136;5.584;2023-02-28T16:47:50;6.50;99.90
23723;DHT22;12042;52.136;5.584;2023-02-28T16:50:26;6.50;99.90
23723;DHT22;12042;52.136;5.584;2023-02-28T16:52:52;6.50;99.90
23723;DHT22;12042;52.136;5.584;2023-02-28T16:55:18;6.40;99.90
23723;DHT22;12042;52.136;5.584;2023-02-28T16:58:10;6.50;99.90
23723;DHT22;12042;52.136;5.584;2023-02-28T17:00:32;6.40;99.90
23723;DHT22;12042;52.136;5.584;2023-02-28T17:02:58;6.40;99.90
23723;DHT22;12042;52.136;5.584;2023-02-28T17:05:37;6.30;99.90
23723;DHT22;12042;52.136;5.584;2023-02-28T17:08:05;6.30;99.90
23723;DHT22;12042;52.136;5.584;2023-02-28T17:10:30;6.20;99.90
23723;DHT22;12042;52.136;5.584;2023-02-28T17:12:56;6.10;99.90
23723;DHT22;12042;52.136;5.584;2023-02-28T17:15:22;6.10;99.90
23723;DHT22;12042;52.136;5.584;2023-02-28T17:17:48;6.10;99.90
23723;DHT22;12042;52.136;5.584;2023-02-28T17:20:22;6.10;99.90
23723;DHT22;12042;52.136;5.584;2023-02-28T17:22:48;6.10;99.90
23723;DHT22;12042;52.136;5.584;2023-02-28T17:25:14;6.00;99.90
23723;DHT22;12042;52.136;5.584;2023-02-28T17:27:40;6.00;99.90
23723;DHT22;12042;52.136;5.584;2023-02-28T17:30:19;5.90;99.90
23723;DHT22;12042;52.136;5.584;2023-02-28T17:32:46;5.90;99.90
23723;DHT22;12042;52.136;5.584;2023-02-28T17:35:12;5.90;99.90
23723;DHT22;12042;52.136;5.584;2023-02-28T17:37:38;5.80;99.90
23723;DHT22;12042;52.136;5.584;2023-02-28T17:40:05;5.80;99.90
23723;DHT22;12042;52.136;5.584;2023-02-28T17:42:31;5.90;99.90
23723;DHT22;12042;52.136;5.584;2023-02-28T17:44:56;5.80;99.90
23723;DHT22;12042;52.136;5.584;2023-02-28T17:47:22;5.80;99.90
23723;DHT22;12042;52.136;5.584;2023-02-28T17:49:47;5.90;99.90
23723;DHT22;12042;52.136;5.584;2023-02-28T17:52:13;6.00;99.90
23723;DHT22;12042;52.136;5.584;2023-02-28T17:54:39;5.90;99.90
23723;DHT22;12042;52.136;5.584;2023-02-28T17:57:04;5.90;99.90
23723;DHT22;12042;52.136;5.584;2023-02-28T17:59:30;5.90;99.90
23723;DHT22;12042;52.136;5.584;2023-02-28T18:02:00;5.90;99.90
23723;DHT22;12042;52.136;5.584;2023-02-28T18:04:25;5.90;99.90
23723;DHT22;12042;52.136;5.584;2023-02-28T18:06:52;5.80;99.90
23723;DHT22;12042;52.136;5.584;2023-02-28T18:09:20;5.80;99.90
23723;DHT22;12042;52.136;5.584;2023-02-28T18:11:50;5.80;99.90
23723;DHT22;12042;52.136;5.584;2023-02-28T18:14:17;5.80;99.90
23723;DHT22;12042;52.136;5.584;2023-02-28T18:16:44;5.70;99.90
23723;DHT22;12042;52.136;5.584;2023-02-28T18:19:11;5.70;99.90
23723;DHT22;12042;52.136;5.584;2023-02-28T18:21:43;5.60;99.90
23723;DHT22;12042;52.136;5.584;2023-02-28T18:24:09;5.50;99.90
23723;DHT22;12042;52.136;5.584;2023-02-28T18:26:36;5.50;99.90
23723;DHT22;12042;52.136;5.584;2023-02-28T18:29:02;5.40;99.90
23723;DHT22;12042;52.136;5.584;2023-02-28T18:31:28;5.30;99.90
23723;DHT22;12042;52.136;5.584;2023-02-28T18:33:54;5.40;99.90
23723;DHT22;12042;52.136;5.584;2023-02-28T18:36:20;5.30;99.90
23723;DHT22;12042;52.136;5.584;2023-02-28T18:38:48;5.20;99.90
23723;DHT22;12042;52.136;5.584;2023-02-28T18:41:15;5.20;99.90
23723;DHT22;12042;52.136;5.584;2023-02-28T18:43:41;5.30;99.90
23723;DHT22;12042;52.136;5.584;2023-02-28T18:46:11;5.20;99.90
23723;DHT22;12042;52.136;5.584;2023-02-28T18:48:37;5.10;99.90
23723;DHT22;12042;52.136;5.584;2023-02-28T18:51:12;5.10;99.90
23723;DHT22;12042;52.136;5.584;2023-02-28T18:53:39;5.10;99.90
23723;DHT22;12042;52.136;5.584;2023-02-28T18:56:06;5.10;99.90
23723;DHT22;12042;52.136;5.584;2023-02-28T18:58:33;5.10;99.90
23723;DHT22;12042;52.136;5.584;2023-02-28T19:01:00;5.20;99.90
23723;DHT22;12042;52.136;5.584;2023-02-28T19:03:26;5.20;99.90
23723;DHT22;12042;52.136;5.584;2023-02-28T19:05:56;5.30;99.90
23723;DHT22;12042;52.136;5.584;2023-02-28T19:08:22;5.30;99.90
23723;DHT22;12042;52.136;5.584;2023-02-28T19:10:48;5.30;99.90
23723;DHT22;12042;52.136;5.584;2023-02-28T19:13:13;5.30;99.90
23723;DHT22;12042;52.136;5.584;2023-02-28T19:15:39;5.20;99.90
23723;DHT22;12042;52.136;5.584;2023-02-28T19:18:05;5.20;99.90
23723;DHT22;12042;52.136;5.584;2023-02-28T19:20:33;5.20;99.90
23723;DHT22;12042;52.136;5.584;2023-02-28T19:22:59;5.20;99.90
23723;DHT22;12042;52.136;5.584;2023-02-28T19:25:25;5.20;99.90
23723;DHT22;12042;52.136;5.584;2023-02-28T19:27:51;5.20;99.90
23723;DHT22;12042;52.136;5.584;2023-02-28T19:30:18;5.20;99.90
23723;DHT22;12042;52.136;5.584;2023-02-28T19:32:43;5.20;99.90
23723;DHT22;12042;52.136;5.584;2023-02-28T19:35:09;5.10;99.90
23723;DHT22;12042;52.136;5.584;2023-02-28T19:37:39;5.00;99.90
23723;DHT22;12042;52.136;5.584;2023-02-28T19:40:07;4.90;99.90
23723;DHT22;12042;52.136;5.584;2023-02-28T19:42:33;4.90;99.90
23723;DHT22;12042;52.136;5.584;2023-02-28T19:45:00;4.80;99.90
23723;DHT22;12042;52.136;5.584;2023-02-28T19:47:27;4.80;99.90
23723;DHT22;12042;52.136;5.584;2023-02-28T19:49:55;4.70;99.90
23723;DHT22;12042;52.136;5.584;2023-02-28T19:52:21;4.80;99.90
23723;DHT22;12042;52.136;5.584;2023-02-28T19:54:47;4.80;99.90
23723;DHT22;12042;52.136;5.584;2023-02-28T19:57:14;4.70;99.90
23723;DHT22;12042;52.136;5.584;2023-02-28T19:59:39;4.70;99.90
23723;DHT22;12042;52.136;5.584;2023-02-28T20:02:13;4.60;99.90
23723;DHT22;12042;52.136;5.584;2023-02-28T20:04:39;4.50;99.90
23723;DHT22;12042;52.136;5.584;2023-02-28T20:07:05;4.30;99.90
23723;DHT22;12042;52.136;5.584;2023-02-28T20:09:31;4.30;99.90
23723;DHT22;12042;52.136;5.584;2023-02-28T20:11:56;4.20;99.90
23723;DHT22;12042;52.136;5.584;2023-02-28T20:14:24;4.20;99.90
23723;DHT22;12042;52.136;5.584;2023-02-28T20:16:50;4.10;99.90
23723;DHT22;12042;52.136;5.584;2023-02-28T20:19:17;4.20;99.90
23723;DHT22;12042;52.136;5.584;2023-02-28T20:21:43;4.10;99.90
23723;DHT22;12042;52.136;5.584;2023-02-28T20:24:10;4.10;99.90
23723;DHT22;12042;52.136;5.584;2023-02-28T20:26:37;4.00;99.90
23723;DHT22;12042;52.136;5.584;2023-02-28T20:29:04;3.80;99.90
23723;DHT22;12042;52.136;5.584;2023-02-28T20:31:30;3.60;99.90
23723;DHT22;12042;52.136;5.584;2023-02-28T20:33:57;3.50;99.90
23723;DHT22;12042;52.136;5.584;2023-02-28T20:36:22;3.30;99.90
23723;DHT22;12042;52.136;5.584;2023-02-28T20:38:49;3.30;99.90
23723;DHT22;12042;52.136;5.584;2023-02-28T20:41:16;3.20;99.90
23723;DHT22;12042;52.136;5.584;2023-02-28T20:43:42;3.20;99.90
23723;DHT22;12042;52.136;5.584;2023-02-28T20:46:08;3.30;99.90
23723;DHT22;12042;52.136;5.584;2023-02-28T20:48:34;3.20;99.90
23723;DHT22;12042;52.136;5.584;2023-02-28T20:51:01;3.10;99.90
23723;DHT22;12042;52.136;5.584;2023-02-28T20:53:29;3.00;99.90
23723;DHT22;12042;52.136;5.584;2023-02-28T20:56:04;2.90;99.90
23723;DHT22;12042;52.136;5.584;2023-02-28T20:58:32;2.80;99.90
23723;DHT22;12042;52.136;5.584;2023-02-28T21:01:14;2.70;99.90
23723;DHT22;12042;52.136;5.584;2023-02-28T21:03:41;2.70;99.90
23723;DHT22;12042;52.136;5.584;2023-02-28T21:06:07;2.60;99.90
23723;DHT22;12042;52.136;5.584;2023-02-28T21:08:35;2.50;99.90
23723;DHT22;12042;52.136;5.584;2023-02-28T21:11:01;2.50;99.90
23723;DHT22;12042;52.136;5.584;2023-02-28T21:13:26;2.40;99.90
23723;DHT22;12042;52.136;5.584;2023-02-28T21:15:52;2.40;99.90
23723;DHT22;12042;52.136;5.584;2023-02-28T21:18:18;2.30;99.90
23723;DHT22;12042;52.136;5.584;2023-02-28T21:20:44;2.30;99.90
23723;DHT22;12042;52.136;5.584;2023-02-28T21:23:10;2.30;99.90
23723;DHT22;12042;52.136;5.584;2023-02-28T21:25:35;2.30;99.90
23723;DHT22;12042;52.136;5.584;2023-02-28T21:28:02;2.20;99.90
23723;DHT22;12042;52.136;5.584;2023-02-28T21:30:29;2.20;99.90
23723;DHT22;12042;52.136;5.584;2023-02-28T21:32:55;2.20;99.90
23723;DHT22;12042;52.136;5.584;2023-02-28T21:35:22;2.20;99.90
23723;DHT22;12042;52.136;5.584;2023-02-28T21:37:48;2.40;99.90
23723;DHT22;12042;52.136;5.584;2023-02-28T21:40:13;2.50;99.90
